Time;durP1;ratioP1;P1;durP2;ratioP2;P2;SDS_P1;SDS_P2;PMS_P1;PMS_P2;Temp;Humidity;BMP_temperature;BMP_pressure;BME280_temperature;BME280_humidity;BME280_pressure;Samples;Min_cycle;Max_cycle;Signal;HPM_P1;HPM_P2
2023/02/22 00:00:41;;;;;;;;;13.00;12.00;;;;;11.66;47.23;98706.84;6249658;27;96458;-65
2023/02/22 00:03:49;;;;;;;;;11.00;10.25;;;;;11.65;47.24;98703.31;6264166;27;96883;-64
2023/02/22 00:06:54;;;;;;;;;16.20;14.20;;;;;11.58;47.29;98699.09;6248322;27;96879;-64
2023/02/22 00:09:59;;;;;;;;;13.00;12.40;;;;;11.70;47.30;98695.31;6235357;27;96660;-64
2023/02/22 00:13:02;;;;;;;;;11.67;10.67;;;;;11.73;47.44;98702.16;6263422;27;96216;-66
2023/02/22 00:16:07;;;;;;;;;15.00;12.60;;;;;11.78;47.71;98704.19;6235063;27;96446;-64
2023/02/22 00:19:10;;;;;;;;;15.40;14.00;;;;;11.77;47.42;98702.53;6262709;27;96356;-64
2023/02/22 00:22:17;;;;;;;;;14.00;12.00;;;;;11.80;47.56;98713.69;6257479;27;96671;-64
2023/02/22 00:25:22;;;;;;;;;14.00;12.00;;;;;11.83;47.56;98705.09;6260172;27;97024;-64
2023/02/22 00:28:26;;;;;;;;;13.00;12.00;;;;;11.86;47.45;98706.53;6248461;27;96604;-64
2023/02/22 00:31:29;;;;;;;;;13.60;11.60;;;;;11.92;47.01;98716.41;6271956;27;96213;-65
2023/02/22 00:34:32;;;;;;;;;12.40;11.00;;;;;11.92;46.86;98716.41;6253559;27;96242;-64
2023/02/22 00:37:40;;;;;;;;;13.00;11.50;;;;;11.85;46.76;98721.91;6256556;27;99685;-64
2023/02/22 00:40:44;;;;;;;;;11.40;11.00;;;;;11.89;46.77;98714.97;6263793;27;96292;-64
2023/02/22 00:43:47;;;;;;;;;13.00;12.00;;;;;11.92;46.91;98725.34;6236377;27;96412;-63
2023/02/22 00:46:51;;;;;;;;;12.00;10.00;;;;;11.94;46.67;98728.59;6243121;27;96807;-64
2023/02/22 00:49:54;;;;;;;;;11.00;10.00;;;;;11.92;46.74;98719.94;6262232;27;97506;-65
2023/02/22 00:53:00;;;;;;;;;13.20;12.80;;;;;11.94;46.82;98725.91;6251956;27;96330;-65
2023/02/22 00:56:04;;;;;;;;;12.00;11.00;;;;;11.91;46.89;98720.16;6212294;27;96750;-64
2023/02/22 00:59:07;;;;;;;;;11.40;9.00;;;;;11.92;46.92;98719.09;6261124;27;96522;-64
2023/02/22 01:02:11;;;;;;;;;15.00;13.40;;;;;11.91;46.88;98731.78;6244908;27;96378;-65
2023/02/22 01:05:15;;;;;;;;;15.00;13.75;;;;;11.78;47.09;98728.50;6252939;27;98491;-65
2023/02/22 01:08:20;;;;;;;;;16.60;15.60;;;;;11.86;47.07;98728.97;6240375;27;96690;-64
2023/02/22 01:11:23;;;;;;;;;15.80;14.20;;;;;11.90;47.06;98730.13;6248955;27;96421;-65
2023/02/22 01:14:28;;;;;;;;;17.00;15.00;;;;;11.92;47.12;98733.44;6244607;27;96663;-64
2023/02/22 01:17:32;;;;;;;;;11.00;10.00;;;;;11.92;47.09;98729.91;6260059;27;97735;-65
2023/02/22 01:20:35;;;;;;;;;14.20;12.40;;;;;11.93;47.01;98737.75;6243830;27;96337;-64
2023/02/22 01:23:40;;;;;;;;;15.00;15.00;;;;;11.87;47.23;98735.19;6257505;27;96539;-65
2023/02/22 01:26:44;;;;;;;;;14.60;13.20;;;;;11.77;47.77;98735.78;6247320;27;96232;-66
2023/02/22 01:29:49;;;;;;;;;15.75;13.75;;;;;11.70;47.88;98735.00;6219683;28;96305;-64
2023/02/22 01:32:53;;;;;;;;;13.80;12.00;;;;;11.68;47.96;98734.41;6239752;27;98498;-64
2023/02/22 01:35:58;;;;;;;;;17.00;16.00;;;;;11.70;48.04;98737.72;6248296;27;96350;-65
2023/02/22 01:39:04;;;;;;;;;15.60;14.00;;;;;11.70;48.08;98726.91;6252349;27;96272;-66
2023/02/22 01:42:08;;;;;;;;;14.40;12.40;;;;;11.67;48.16;98739.00;6262143;27;97068;-65
2023/02/22 01:45:57;;;;;;;;;18.40;16.00;;;;;11.64;48.23;98731.34;6237299;27;96426;-69
2023/02/22 01:49:05;;;;;;;;;19.00;18.75;;;;;11.55;48.61;98735.44;6197777;27;96702;-65
2023/02/22 01:52:12;;;;;;;;;19.00;17.50;;;;;11.47;48.75;98730.41;6227606;27;96551;-64
2023/02/22 01:55:18;;;;;;;;;18.00;17.00;;;;;11.52;48.74;98724.31;6260112;27;97507;-64
2023/02/22 01:58:23;;;;;;;;;19.00;17.00;;;;;11.49;48.92;98730.97;6264756;27;96809;-65
2023/02/22 02:01:29;;;;;;;;;23.75;21.25;;;;;11.45;48.97;98729.78;6239862;27;98718;-65
2023/02/22 02:04:34;;;;;;;;;20.00;19.00;;;;;11.49;48.85;98727.44;6276524;27;96341;-63
2023/02/22 02:07:39;;;;;;;;;16.20;15.40;;;;;11.47;49.07;98729.56;6264385;27;97096;-64
2023/02/22 02:10:44;;;;;;;;;22.00;20.00;;;;;11.43;49.01;98728.41;6247729;27;96584;-65
2023/02/22 02:13:50;;;;;;;;;21.75;19.00;;;;;11.36;49.10;98719.56;6257200;27;96362;-64
2023/02/22 02:16:55;;;;;;;;;19.75;19.00;;;;;11.37;49.30;98724.72;6255378;27;96451;-64
2023/02/22 02:20:10;;;;;;;;;25.60;22.00;;;;;11.31;49.57;98728.34;6232910;27;96518;-65
2023/02/22 02:23:47;;;;;;;;;22.80;19.80;;;;;11.28;49.86;98726.94;6246952;27;96665;-65
2023/02/22 02:27:14;;;;;;;;;21.60;20.00;;;;;11.20;49.80;98721.84;6231660;27;96519;-66
2023/02/22 02:31:07;;;;;;;;;22.40;19.40;;;;;11.20;49.83;98726.44;6228562;27;99077;-64
2023/02/22 02:34:23;;;;;;;;;18.25;16.50;;;;;11.13;50.00;98733.81;6264724;27;96401;-63
2023/02/22 02:37:36;;;;;;;;;22.80;22.00;;;;;11.04;50.10;98725.22;6266623;27;97569;-64
2023/02/22 02:40:48;;;;;;;;;20.60;18.60;;;;;11.07;50.37;98724.75;6274341;27;96755;-64
2023/02/22 02:43:57;;;;;;;;;24.50;21.50;;;;;11.04;50.22;98730.63;6242915;27;96395;-63
2023/02/22 02:47:02;;;;;;;;;19.80;18.80;;;;;11.08;50.20;98730.97;6246457;27;96937;-64
2023/02/22 02:50:12;;;;;;;;;28.00;23.00;;;;;11.07;50.36;98742.81;6242873;27;96247;-63
2023/02/22 02:53:20;;;;;;;;;29.00;25.60;;;;;11.07;50.39;98740.94;6259370;27;96390;-64
2023/02/22 02:56:25;;;;;;;;;20.40;17.40;;;;;11.02;50.49;98715.69;6234520;27;96508;-64
2023/02/22 02:59:30;;;;;;;;;26.50;23.50;;;;;11.15;50.07;98729.81;6250506;27;96528;-64
2023/02/22 03:02:45;;;;;;;;;23.25;21.25;;;;;11.22;50.03;98727.84;6253066;27;98469;-64
2023/02/22 03:06:09;;;;;;;;;25.40;24.00;;;;;11.18;50.25;98732.06;6252930;27;96615;-64
2023/02/22 03:09:24;;;;;;;;;20.00;18.00;;;;;11.20;50.15;98737.22;6265019;27;96773;-64
2023/02/22 03:12:38;;;;;;;;;26.00;21.20;;;;;11.23;50.07;98734.91;6263640;27;97221;-64
2023/02/22 03:15:51;;;;;;;;;20.50;17.00;;;;;11.24;49.77;98743.78;6261665;27;96421;-65
2023/02/22 03:19:03;;;;;;;;;22.00;21.00;;;;;11.26;49.54;98737.13;6253271;27;96549;-65
2023/02/22 03:22:13;;;;;;;;;21.80;20.40;;;;;11.28;49.73;98751.22;6246681;27;96898;-65
2023/02/22 03:25:22;;;;;;;;;22.40;19.40;;;;;11.32;49.48;98746.19;6250869;27;96779;-63
2023/02/22 03:28:32;;;;;;;;;16.00;14.60;;;;;11.35;49.49;98748.41;6219410;27;98403;-64
2023/02/22 03:31:39;;;;;;;;;20.40;18.40;;;;;11.39;49.42;98755.00;6255053;27;96632;-64
2023/02/22 03:34:49;;;;;;;;;20.00;20.00;;;;;11.37;49.53;98757.13;6244263;27;97068;-64
2023/02/22 03:38:02;;;;;;;;;21.00;20.60;;;;;11.30;49.64;98742.88;6233384;27;96915;-64
2023/02/22 03:41:09;;;;;;;;;21.00;17.33;;;;;11.38;49.57;98755.25;6263489;27;96422;-66
2023/02/22 03:44:15;;;;;;;;;22.25;21.00;;;;;11.36;49.46;98755.47;6245541;27;96618;-65
2023/02/22 03:47:26;;;;;;;;;19.00;18.00;;;;;11.29;49.41;98743.94;6250398;27;96477;-63
2023/02/22 03:50:35;;;;;;;;;18.25;17.75;;;;;11.37;49.59;98751.72;6240776;27;96791;-65
2023/02/22 03:53:43;;;;;;;;;20.60;19.00;;;;;11.39;49.46;98751.47;6263510;27;96599;-64
2023/02/22 03:56:53;;;;;;;;;22.20;21.60;;;;;11.42;49.35;98756.44;6238743;27;96933;-64
2023/02/22 03:59:57;;;;;;;;;22.60;21.00;;;;;11.40;49.59;98759.34;6241187;27;96664;-66
2023/02/22 04:03:04;;;;;;;;;21.00;20.00;;;;;11.37;49.58;98759.81;6243515;27;96217;-65
2023/02/22 04:07:00;;;;;;;;;24.00;22.80;;;;;11.37;49.67;98759.81;6241003;27;98899;-65
2023/02/22 04:10:23;;;;;;;;;23.75;20.75;;;;;11.34;49.62;98760.25;6262963;27;96672;-63
2023/02/22 04:13:27;;;;;;;;;23.20;19.80;;;;;11.24;49.75;98760.81;6253959;27;96492;-64
2023/02/22 04:16:31;;;;;;;;;24.00;21.00;;;;;11.28;49.87;98755.81;6231135;27;99604;-64
2023/02/22 04:19:35;;;;;;;;;27.00;24.00;;;;;11.19;49.83;98746.38;6245754;27;96183;-64
2023/02/22 04:22:40;;;;;;;;;23.80;22.40;;;;;11.30;49.71;98761.78;6231217;27;96490;-64
2023/02/22 04:25:45;;;;;;;;;26.00;24.00;;;;;11.25;49.85;98758.94;6234805;27;96421;-64
2023/02/22 04:28:51;;;;;;;;;24.00;21.60;;;;;11.22;49.84;98762.94;6262667;27;96362;-65
2023/02/22 04:31:58;;;;;;;;;27.25;24.00;;;;;11.19;49.97;98757.19;6228598;27;98429;-65
2023/02/22 04:35:01;;;;;;;;;30.00;24.00;;;;;11.17;50.11;98752.00;6207970;28;98379;-65
2023/02/22 04:38:08;;;;;;;;;23.00;20.00;;;;;11.18;50.17;98755.53;6276085;27;96301;-64
2023/02/22 04:41:17;;;;;;;;;28.00;25.00;;;;;11.16;50.40;98761.16;6249819;27;97581;-63
2023/02/22 04:44:20;;;;;;;;;24.75;21.75;;;;;11.11;50.40;98768.28;6251840;27;96604;-63
2023/02/22 04:47:25;;;;;;;;;26.60;23.60;;;;;11.03;50.63;98764.03;6227294;27;97513;-63
2023/02/22 04:50:29;;;;;;;;;22.80;20.80;;;;;11.00;50.89;98775.25;6225151;27;97343;-63
2023/02/22 04:53:32;;;;;;;;;23.00;21.50;;;;;10.97;50.93;98773.03;6250001;27;97037;-66
2023/02/22 04:56:38;;;;;;;;;26.00;24.00;;;;;10.97;50.92;98764.94;6258171;27;96305;-65
2023/02/22 04:59:42;;;;;;;;;25.80;24.00;;;;;10.91;50.83;98767.69;6240949;27;98022;-64
2023/02/22 05:02:47;;;;;;;;;26.00;24.60;;;;;10.98;50.91;98769.28;6221031;27;99987;-64
2023/02/22 05:05:52;;;;;;;;;25.00;23.00;;;;;10.98;50.97;98773.84;6238607;27;96467;-65
2023/02/22 05:08:55;;;;;;;;;22.00;21.00;;;;;10.94;51.16;98773.50;6248343;27;96924;-64
2023/02/22 05:12:00;;;;;;;;;23.25;21.25;;;;;10.90;51.05;98766.06;6254837;27;97478;-63
2023/02/22 05:15:04;;;;;;;;;23.60;22.80;;;;;10.96;51.09;98771.38;6233143;27;97837;-65
2023/02/22 05:18:07;;;;;;;;;27.00;24.25;;;;;10.94;51.30;98764.56;6244806;27;96388;-64
2023/02/22 05:21:12;;;;;;;;;26.50;23.50;;;;;10.95;51.27;98768.88;6236642;27;96229;-64
2023/02/22 05:24:15;;;;;;;;;24.00;23.25;;;;;10.94;51.05;98768.09;6251190;27;96591;-64
2023/02/22 05:27:20;;;;;;;;;22.60;22.60;;;;;10.87;51.41;98775.44;6258119;27;96314;-63
2023/02/22 05:30:27;;;;;;;;;23.33;23.00;;;;;10.86;51.38;98788.09;6253828;27;96764;-65
2023/02/22 05:33:31;;;;;;;;;26.25;24.00;;;;;10.82;51.38;98783.38;6215007;27;98591;-64
2023/02/22 05:36:34;;;;;;;;;26.60;24.00;;;;;10.82;51.28;98784.19;6245491;27;96963;-65
2023/02/22 05:39:38;;;;;;;;;27.00;24.00;;;;;10.75;51.43;98783.44;6236821;27;98440;-64
2023/02/22 05:42:43;;;;;;;;;30.00;26.00;;;;;10.77;51.59;98791.31;6237019;27;97062;-64
2023/02/22 05:45:46;;;;;;;;;31.00;26.00;;;;;10.73;51.84;98779.34;6240776;27;97038;-66
2023/02/22 05:48:49;;;;;;;;;28.20;26.20;;;;;10.76;51.76;98789.66;6241548;27;96541;-64
2023/02/22 05:51:54;;;;;;;;;30.60;27.60;;;;;10.84;51.54;98797.47;6240485;27;96666;-65
2023/02/22 05:54:58;;;;;;;;;30.00;25.25;;;;;10.84;51.39;98792.91;6228871;27;98359;-65
2023/02/22 05:58:04;;;;;;;;;27.80;26.00;;;;;10.85;51.44;98809.88;6246967;27;96525;-65
2023/02/22 06:01:08;;;;;;;;;27.60;25.40;;;;;10.85;51.19;98804.47;6251155;27;96830;-65
2023/02/22 06:04:11;;;;;;;;;26.40;23.00;;;;;10.91;51.43;98808.16;6201376;27;98547;-67
2023/02/22 06:07:15;;;;;;;;;35.00;29.75;;;;;10.87;51.38;98802.41;6255407;27;97250;-66
2023/02/22 06:10:18;;;;;;;;;29.80;25.40;;;;;11.02;51.11;98820.91;6250765;27;96486;-64
2023/02/22 06:13:23;;;;;;;;;28.00;25.00;;;;;11.06;51.06;98817.53;6244534;27;96512;-66
2023/02/22 06:16:26;;;;;;;;;28.00;27.00;;;;;11.11;51.02;98831.16;6243567;27;96621;-65
2023/02/22 06:19:30;;;;;;;;;28.40;26.40;;;;;11.12;50.80;98837.38;6236802;27;96494;-66
2023/02/22 06:22:33;;;;;;;;;31.50;26.25;;;;;11.13;51.09;98833.63;6249600;27;97160;-66
2023/02/22 06:25:36;;;;;;;;;29.75;27.75;;;;;11.12;50.72;98834.69;6257376;27;97704;-64
2023/02/22 06:28:41;;;;;;;;;21.60;18.40;;;;;11.20;50.60;98832.50;6243504;27;97119;-63
2023/02/22 06:31:45;;;;;;;;;32.60;28.40;;;;;11.24;50.63;98840.94;6254672;27;96357;-64
2023/02/22 06:34:48;;;;;;;;;29.25;26.25;;;;;11.26;50.40;98842.38;6238108;27;98907;-64
2023/02/22 06:37:52;;;;;;;;;33.00;30.00;;;;;11.29;50.21;98844.63;6243915;27;99636;-64
2023/02/22 06:40:55;;;;;;;;;29.60;27.00;;;;;11.32;50.23;98846.06;6261123;27;96529;-64
2023/02/22 06:44:00;;;;;;;;;30.00;26.00;;;;;11.43;50.35;98850.69;6243241;27;96700;-64
2023/02/22 06:47:03;;;;;;;;;26.00;24.60;;;;;11.49;50.05;98851.63;6241941;27;96807;-65
2023/02/22 06:50:12;;;;;;;;;25.00;22.50;;;;;11.51;49.88;98854.94;6215480;28;98362;-63
2023/02/22 06:53:15;;;;;;;;;27.00;25.60;;;;;11.52;49.76;98853.88;6243901;27;98419;-64
2023/02/22 06:56:19;;;;;;;;;23.00;21.00;;;;;11.53;49.54;98855.53;6263626;27;96725;-64
2023/02/22 06:59:24;;;;;;;;;25.00;22.75;;;;;11.55;49.45;98864.22;6262968;27;96824;-64
2023/02/22 07:02:27;;;;;;;;;28.40;26.80;;;;;11.57;49.00;98862.13;6240258;27;96426;-65
2023/02/22 07:05:30;;;;;;;;;25.80;23.40;;;;;11.63;49.17;98862.00;6250591;27;96481;-65
2023/02/22 07:08:33;;;;;;;;;29.40;27.40;;;;;11.69;49.28;98862.97;6252600;27;96322;-65
2023/02/22 07:11:38;;;;;;;;;24.50;23.00;;;;;11.73;49.06;98860.69;6264564;27;96355;-66
2023/02/22 07:14:43;;;;;;;;;26.50;23.25;;;;;11.71;48.77;98856.31;6259228;27;96414;-64
2023/02/22 07:17:46;;;;;;;;;30.00;26.25;;;;;11.77;48.80;98864.59;6239568;27;96843;-65
2023/02/22 07:20:50;;;;;;;;;26.75;22.75;;;;;11.80;48.76;98861.41;6246688;27;97757;-64
2023/02/22 07:23:55;;;;;;;;;29.00;26.60;;;;;11.83;48.83;98867.16;6245856;27;98533;-65
2023/02/22 07:27:00;;;;;;;;;25.80;23.00;;;;;11.84;48.10;98852.63;6249510;27;97099;-63
2023/02/22 07:30:08;;;;;;;;;25.25;22.00;;;;;11.99;48.05;98863.00;6251915;27;96367;-65
2023/02/22 07:33:12;;;;;;;;;24.80;23.00;;;;;11.97;48.07;98871.31;6250935;27;96558;-64
2023/02/22 07:36:17;;;;;;;;;26.25;24.25;;;;;12.00;47.94;98867.34;6264579;27;96726;-64
2023/02/22 07:39:20;;;;;;;;;26.40;22.60;;;;;11.99;47.85;98869.22;6237559;27;96518;-65
2023/02/22 07:42:23;;;;;;;;;28.00;26.00;;;;;11.94;47.84;98862.84;6259189;27;97060;-63
2023/02/22 07:45:29;;;;;;;;;27.60;27.00;;;;;11.87;48.08;98857.56;6246259;27;96611;-64
2023/02/22 07:48:33;;;;;;;;;26.00;23.00;;;;;11.90;47.81;98862.50;6258770;27;97031;-64
2023/02/22 07:51:36;;;;;;;;;31.00;27.00;;;;;11.94;48.17;98860.97;6240335;27;96426;-65
2023/02/22 07:54:39;;;;;;;;;25.20;23.00;;;;;12.01;48.16;98861.72;6245050;27;98421;-64
2023/02/22 07:57:45;;;;;;;;;30.20;27.20;;;;;12.09;47.86;98865.97;6258722;27;96390;-64
2023/02/22 08:00:49;;;;;;;;;29.00;25.75;;;;;12.17;47.47;98865.59;6245238;27;96643;-64
2023/02/22 08:03:53;;;;;;;;;29.50;27.50;;;;;12.24;47.33;98863.63;6234886;27;96431;-66
2023/02/22 08:06:56;;;;;;;;;30.00;27.20;;;;;12.34;47.50;98866.59;6262711;27;98359;-64
2023/02/22 08:09:59;;;;;;;;;25.00;22.75;;;;;12.43;46.76;98869.75;6279298;27;96224;-63
2023/02/22 08:13:05;;;;;;;;;29.00;26.00;;;;;12.49;46.49;98875.06;6282204;27;96328;-64
2023/02/22 08:16:10;;;;;;;;;31.00;28.25;;;;;12.58;46.50;98870.97;6255939;27;98473;-66
2023/02/22 08:19:13;;;;;;;;;27.80;23.80;;;;;12.68;46.15;98877.66;6259713;27;96510;-64
2023/02/22 08:22:16;;;;;;;;;27.25;24.00;;;;;12.71;46.49;98875.28;6252379;27;96394;-65
2023/02/22 08:25:24;;;;;;;;;27.00;25.00;;;;;12.71;45.15;98874.47;6252582;27;96916;-67
2023/02/22 08:28:27;;;;;;;;;20.00;18.20;;;;;12.73;43.18;98867.78;6255954;27;96688;-64
2023/02/22 08:31:32;;;;;;;;;16.60;15.60;;;;;12.85;42.80;98875.91;6237952;27;98513;-67
2023/02/22 08:34:35;;;;;;;;;27.00;24.00;;;;;12.88;44.65;98870.00;6243538;27;99483;-64
2023/02/22 08:37:42;;;;;;;;;24.00;22.80;;;;;12.92;44.57;98873.88;6259711;27;96696;-64
2023/02/22 08:40:47;;;;;;;;;26.40;24.00;;;;;13.02;44.09;98883.03;6275654;27;96312;-65
2023/02/22 08:43:50;;;;;;;;;21.00;18.50;;;;;13.09;43.20;98876.69;6285956;27;96384;-64
2023/02/22 08:46:55;;;;;;;;;23.00;20.00;;;;;13.18;43.55;98880.69;6288725;27;96614;-63
2023/02/22 08:49:58;;;;;;;;;24.40;22.00;;;;;13.18;43.70;98886.13;6268941;27;96601;-64
2023/02/22 08:53:03;;;;;;;;;25.00;22.00;;;;;13.28;43.70;98887.16;6265580;27;98411;-66
2023/02/22 08:56:07;;;;;;;;;21.00;19.00;;;;;13.33;42.57;98881.84;6272001;27;96398;-66
2023/02/22 08:59:10;;;;;;;;;23.00;20.60;;;;;13.45;42.96;98881.78;6269472;27;99200;-67
2023/02/22 09:02:19;;;;;;;;;17.25;16.00;;;;;13.48;40.66;98877.81;6256093;27;96667;-66
2023/02/22 09:05:22;;;;;;;;;14.25;13.25;;;;;13.57;39.93;98873.66;6264142;27;96510;-66
2023/02/22 09:08:25;;;;;;;;;13.00;12.00;;;;;13.68;38.99;98886.34;6277409;27;96308;-65
2023/02/22 09:11:29;;;;;;;;;12.40;12.00;;;;;13.79;38.93;98883.56;6246355;27;98373;-65
2023/02/22 09:14:32;;;;;;;;;9.00;9.00;;;;;13.87;38.01;98885.06;6261281;27;99926;-66
2023/02/22 09:17:37;;;;;;;;;9.00;8.20;;;;;13.79;37.90;98886.25;6269983;27;96270;-65
2023/02/22 09:20:41;;;;;;;;;9.50;8.50;;;;;13.87;37.40;98887.78;6261450;27;98450;-65
2023/02/22 09:23:47;;;;;;;;;10.00;9.60;;;;;13.88;37.91;98887.50;6234872;27;99279;-65
2023/02/22 09:26:53;;;;;;;;;13.00;12.60;;;;;14.07;38.37;98890.03;6273868;27;96257;-65
2023/02/22 09:29:56;;;;;;;;;14.00;12.00;;;;;14.32;38.30;98890.44;6286175;27;96431;-65
2023/02/22 09:33:05;;;;;;;;;11.00;10.00;;;;;14.69;37.45;98890.81;6284531;27;96292;-65
2023/02/22 09:36:09;;;;;;;;;8.00;7.25;;;;;14.98;36.25;98896.94;6271524;27;96470;-66
2023/02/22 09:39:14;;;;;;;;;8.00;7.00;;;;;15.35;34.47;98891.72;6271108;27;96816;-66
2023/02/22 09:42:29;;;;;;;;;5.60;5.60;;;;;15.87;32.70;98890.22;6259814;27;97859;-65
2023/02/22 09:45:36;;;;;;;;;7.00;6.80;;;;;16.50;32.77;98876.94;6283009;27;96294;-65
2023/02/22 09:49:04;;;;;;;;;8.20;8.20;;;;;17.96;31.02;98877.72;6275371;27;96295;-65
2023/02/22 09:52:17;;;;;;;;;4.40;4.00;;;;;19.08;28.70;98878.56;6284292;27;96379;-66
2023/02/22 09:55:33;;;;;;;;;5.00;5.00;;;;;20.40;26.89;98886.97;6263840;27;96365;-67
2023/02/22 09:58:41;;;;;;;;;6.00;5.00;;;;;20.82;27.03;98885.53;6283506;27;97316;-66
2023/02/22 10:01:50;;;;;;;;;6.00;6.00;;;;;20.61;26.50;98885.72;6264578;27;98380;-66
2023/02/22 10:05:04;;;;;;;;;6.33;5.33;;;;;20.40;26.09;98884.25;6273199;27;96535;-65
2023/02/22 10:08:12;;;;;;;;;5.20;5.00;;;;;20.37;25.29;98876.63;6261281;27;96278;-65
2023/02/22 10:11:29;;;;;;;;;5.20;4.60;;;;;19.95;25.99;98873.56;6267032;27;96720;-65
2023/02/22 10:14:47;;;;;;;;;5.50;5.50;;;;;19.79;26.61;98870.13;6275857;27;96620;-67
2023/02/22 10:18:03;;;;;;;;;5.00;3.50;;;;;19.18;26.06;98869.50;6283601;27;96737;-65
2023/02/22 10:21:23;;;;;;;;;5.00;4.20;;;;;18.43;27.09;98868.50;6272194;27;97305;-66
2023/02/22 10:24:38;;;;;;;;;6.00;5.00;;;;;18.17;28.24;98865.78;6224003;28;96408;-65
2023/02/22 10:27:47;;;;;;;;;6.00;5.00;;;;;18.24;27.96;98861.94;6231799;27;98505;-65
2023/02/22 10:30:55;;;;;;;;;7.00;6.00;;;;;18.11;27.75;98863.28;6254731;27;96719;-65
2023/02/22 10:34:01;;;;;;;;;5.75;3.50;;;;;17.95;28.05;98864.34;6265474;27;96305;-67
2023/02/22 10:37:22;;;;;;;;;6.40;6.40;;;;;17.81;27.97;98863.22;6275075;27;96342;-68
2023/02/22 10:40:31;;;;;;;;;7.00;5.40;;;;;17.81;28.66;98864.06;6261121;27;96677;-66
2023/02/22 10:43:38;;;;;;;;;8.00;6.00;;;;;17.69;28.50;98864.28;6254211;27;96712;-66
2023/02/22 10:46:43;;;;;;;;;4.00;3.50;;;;;17.52;28.03;98865.56;6277129;27;96362;-66
2023/02/22 10:49:51;;;;;;;;;6.00;6.00;;;;;17.28;28.63;98857.03;6266112;27;96977;-66
2023/02/22 10:52:55;;;;;;;;;7.60;7.60;;;;;17.15;29.00;98855.59;6265763;27;96943;-66
2023/02/22 10:56:12;;;;;;;;;6.20;5.80;;;;;17.36;29.11;98853.78;6282794;27;96284;-66
2023/02/22 10:59:28;;;;;;;;;7.00;6.00;;;;;17.66;27.90;98861.28;6284765;27;96730;-65
2023/02/22 11:02:33;;;;;;;;;5.60;5.60;;;;;17.60;28.23;98857.72;6266135;27;97760;-66
2023/02/22 11:05:39;;;;;;;;;6.00;6.00;;;;;17.48;27.97;98850.84;6233877;27;96635;-66
2023/02/22 11:08:49;;;;;;;;;8.00;7.50;;;;;17.31;28.29;98853.75;6277903;27;96302;-65
2023/02/22 11:12:11;;;;;;;;;5.00;5.00;;;;;17.13;28.72;98833.25;6278311;27;96885;-65
2023/02/22 11:15:27;;;;;;;;;6.00;4.40;;;;;17.11;29.13;98854.50;6275123;27;96321;-67
2023/02/22 11:18:34;;;;;;;;;6.00;5.00;;;;;17.09;29.36;98861.28;6272169;27;96859;-66
2023/02/22 11:21:38;;;;;;;;;5.00;5.00;;;;;17.03;28.71;98848.72;6287257;27;96496;-66
2023/02/22 11:24:49;;;;;;;;;8.00;8.00;;;;;17.00;29.07;98850.09;6277779;27;96208;-66
2023/02/22 11:27:54;;;;;;;;;7.00;7.00;;;;;16.84;28.91;98843.72;6269292;27;96337;-66
2023/02/22 11:31:11;;;;;;;;;9.00;7.40;;;;;16.65;29.56;98850.69;6275149;27;96465;-66
2023/02/22 11:34:32;;;;;;;;;8.60;7.00;;;;;16.85;30.17;98844.56;6214804;27;98373;-66
2023/02/22 11:37:36;;;;;;;;;10.00;9.00;;;;;16.99;29.33;98842.19;6250323;27;97095;-66
2023/02/22 11:40:41;;;;;;;;;7.20;7.00;;;;;17.07;29.04;98836.22;6212469;27;98665;-66
2023/02/22 11:43:46;;;;;;;;;7.00;6.25;;;;;17.12;29.34;98847.13;6253942;27;96953;-66
2023/02/22 11:46:50;;;;;;;;;8.67;6.67;;;;;17.11;29.33;98851.75;6251644;27;97125;-67
2023/02/22 11:49:54;;;;;;;;;8.80;8.00;;;;;16.99;28.42;98851.16;6284554;27;96228;-66
2023/02/22 11:53:25;;;;;;;;;9.50;7.25;;;;;16.85;29.54;98839.94;6257248;27;96715;-66
2023/02/22 11:56:37;;;;;;;;;9.60;7.40;;;;;17.16;28.95;98843.63;6226820;27;96596;-65
2023/02/22 11:59:51;;;;;;;;;8.40;8.00;;;;;18.15;28.30;98843.38;6260290;27;96787;-66
2023/02/22 12:03:28;;;;;;;;;9.00;7.40;;;;;18.92;27.19;98842.25;6252897;27;96364;-66
2023/02/22 12:06:42;;;;;;;;;8.75;7.00;;;;;18.87;26.72;98842.25;6276476;27;96389;-66
2023/02/22 12:09:55;;;;;;;;;7.00;6.00;;;;;18.81;27.05;98839.84;6272800;27;96766;-65
2023/02/22 12:13:16;;;;;;;;;9.40;9.00;;;;;18.67;27.25;98834.09;6279913;27;97187;-65
2023/02/22 12:16:32;;;;;;;;;6.40;6.20;;;;;18.48;27.19;98831.09;6241108;27;97076;-65
2023/02/22 12:19:39;;;;;;;;;11.00;10.00;;;;;18.94;26.74;98828.31;6285981;27;96607;-66
2023/02/22 12:22:52;;;;;;;;;7.60;6.60;;;;;20.27;25.19;98827.38;6277003;27;96387;-66
2023/02/22 12:25:59;;;;;;;;;9.50;9.00;;;;;20.59;25.36;98827.66;6269302;27;96576;-67
2023/02/22 12:29:11;;;;;;;;;9.75;8.75;;;;;21.05;24.22;98832.69;6262516;27;98552;-66
2023/02/22 12:32:19;;;;;;;;;8.80;7.40;;;;;22.12;23.79;98824.72;6255678;27;96257;-66
2023/02/22 12:35:26;;;;;;;;;9.60;9.00;;;;;22.71;22.45;98826.78;6237661;27;96648;-66
2023/02/22 12:38:37;;;;;;;;;9.25;9.00;;;;;22.24;22.13;98819.56;6277106;27;96350;-66
2023/02/22 12:41:44;;;;;;;;;10.00;9.50;;;;;21.86;23.23;98823.44;6245231;27;97303;-66
2023/02/22 12:44:54;;;;;;;;;8.00;7.00;;;;;21.41;23.12;98824.84;6255934;27;98426;-67
2023/02/22 12:48:07;;;;;;;;;8.60;8.00;;;;;21.06;23.92;98820.63;6280441;27;96325;-66
2023/02/22 12:51:28;;;;;;;;;9.60;9.00;;;;;21.13;23.89;98813.69;6256831;27;96524;-66
2023/02/22 12:54:44;;;;;;;;;9.00;8.00;;;;;21.26;23.24;98816.84;6289351;27;96384;-67
2023/02/22 12:57:57;;;;;;;;;7.40;7.40;;;;;21.28;23.78;98817.34;6266048;27;96587;-66
2023/02/22 13:01:05;;;;;;;;;9.00;8.20;;;;;21.24;23.19;98817.13;6272155;27;96439;-67
2023/02/22 13:04:10;;;;;;;;;9.50;9.25;;;;;20.93;23.79;98802.94;6261060;27;98383;-67
2023/02/22 13:07:41;;;;;;;;;6.00;6.00;;;;;20.67;24.71;98818.81;6250965;27;97709;-67
2023/02/22 13:11:06;;;;;;;;;7.00;7.00;;;;;20.22;24.11;98803.59;6259203;27;96487;-65
2023/02/22 13:14:35;;;;;;;;;8.80;8.00;;;;;19.85;25.25;98817.00;6220341;27;98352;-66
2023/02/22 13:17:48;;;;;;;;;8.00;8.00;;;;;19.78;25.24;98819.25;6229674;27;96636;-67
2023/02/22 13:20:59;;;;;;;;;9.00;8.00;;;;;19.87;25.55;98815.63;6248480;27;96339;-68
2023/02/22 13:24:12;;;;;;;;;9.80;7.40;;;;;19.58;26.02;98800.22;6236021;27;97190;-67
2023/02/22 13:27:21;;;;;;;;;9.75;8.75;;;;;19.36;25.63;98820.50;6233366;27;97110;-67
2023/02/22 13:30:32;;;;;;;;;11.00;10.00;;;;;19.02;26.35;98811.34;6232731;27;96715;-67
2023/02/22 13:33:54;;;;;;;;;11.00;10.00;;;;;18.72;26.43;98814.16;6233257;27;96384;-68
2023/02/22 13:37:21;;;;;;;;;9.40;8.40;;;;;18.34;26.99;98816.38;6230616;27;98318;-66
2023/02/22 13:41:01;;;;;;;;;9.00;8.00;;;;;18.01;27.20;98817.72;6229822;27;96832;-67
2023/02/22 13:44:35;;;;;;;;;15.50;13.50;;;;;17.70;27.69;98814.13;6232497;27;98396;-66
2023/02/22 13:48:28;;;;;;;;;8.20;7.00;;;;;17.29;28.55;98823.25;6216220;27;96656;-66
2023/02/22 13:51:47;;;;;;;;;10.75;9.00;;;;;17.01;28.68;98819.03;6175263;28;96297;-65
2023/02/22 13:54:54;;;;;;;;;10.25;9.25;;;;;16.72;28.87;98820.50;6174149;28;96304;-67
2023/02/22 13:58:02;;;;;;;;;8.80;8.80;;;;;16.48;29.30;98820.84;6157407;28;96687;-65
2023/02/22 14:01:07;;;;;;;;;8.00;8.00;;;;;16.39;29.52;98821.59;6173043;28;96698;-66
2023/02/22 14:04:38;;;;;;;;;9.00;8.00;;;;;16.29;29.71;98825.06;6159761;28;96700;-65
2023/02/22 14:07:51;;;;;;;;;6.80;6.00;;;;;16.15;29.89;98817.59;6160225;28;96769;-66
2023/02/22 14:10:56;;;;;;;;;10.75;9.75;;;;;16.01;29.95;98815.31;6183552;28;97186;-64
2023/02/22 14:14:16;;;;;;;;;9.25;8.00;;;;;15.92;30.42;98821.50;6156372;28;96603;-67
2023/02/22 14:17:28;;;;;;;;;11.00;10.00;;;;;15.73;30.31;98829.19;6174370;28;97385;-65
2023/02/22 14:20:35;;;;;;;;;10.00;8.33;;;;;15.47;30.73;98810.94;6175545;28;96445;-65
2023/02/22 14:23:41;;;;;;;;;10.60;9.00;;;;;15.49;30.83;98817.75;6177532;28;96719;-65
2023/02/22 14:26:56;;;;;;;;;8.00;7.40;;;;;15.23;31.19;98807.69;6228048;28;96344;-66
2023/02/22 14:30:00;;;;;;;;;9.60;9.60;;;;;15.17;31.40;98823.09;6226955;28;97662;-64
2023/02/22 14:33:24;;;;;;;;;10.00;9.00;;;;;15.15;31.40;98829.84;6221109;28;96256;-66